CheckWX is a tool to help pilots better visualize weather data.  It is not intended as a substitute for an official pre-flight weather briefing.

14:22:54 UTC

KLBB METAR
Lubbock Preston Smith International Airport
Lubbock, Texas, USA
Current

1 hour ago

KLBB 161253Z 19011KT 10SM FEW150 BKN250 26/17 A3002 RMK AO2 SLP105 BKN LYR THN T02610167
Observed
Jul-16 @ 12:53 UTC
Wind
  • 190° at 11 KTS
Visibility
10 SM
Flight Rules
VFR
Cloud Levels
  • Few at 15,000' AGL
  • Broken at 25,000' AGL
Temperature
26°C / 79°F
Dewpoint
17°C / 63°F
Humidity
58%
Altimeter
30.02" Hg
Pressure
1016.62 hPa
Previous

2 hours ago

KLBB 161153Z 19008KT 10SM SCT160 BKN250 24/17 A3002 RMK AO2 SLP105 T02440167 10261 20233 53006
Observed
Jul-16 @ 11:53 UTC
Wind
  • 190° at 8 KTS
Visibility
10 SM
Flight Rules
VFR
Cloud Levels
  • Scattered at 16,000' AGL
  • Broken at 25,000' AGL
Temperature
24°C / 75°F
Dewpoint
17°C / 63°F
Humidity
65%
Altimeter
30.02" Hg
Pressure
1016.62 hPa
Previous

3 hours ago

KLBB 161053Z 22010KT 10SM FEW170 SCT260 26/16 A3001 RMK AO2 SLP100 T02610161
Observed
Jul-16 @ 10:53 UTC
Wind
  • 220° at 10 KTS
Visibility
10 SM
Flight Rules
VFR
Cloud Levels
  • Few at 17,000' AGL
  • Scattered at 26,000' AGL
Temperature
26°C / 79°F
Dewpoint
16°C / 61°F
Humidity
54%
Altimeter
30.01" Hg
Pressure
1016.22 hPa